sensor_id;sensor_type;location;lat;lon;timestamp;temperature;humidity
52415;DHT22;38340;52.964;6.086;2022-07-11T00:01:35;15.70;99.90
52415;DHT22;38340;52.964;6.086;2022-07-11T00:04:00;15.70;99.90
52415;DHT22;38340;52.964;6.086;2022-07-11T00:06:26;15.80;99.90
52415;DHT22;38340;52.964;6.086;2022-07-11T00:08:52;15.70;99.90
52415;DHT22;38340;52.964;6.086;2022-07-11T00:11:18;15.70;99.90
52415;DHT22;38340;52.964;6.086;2022-07-11T00:13:43;15.70;99.90
52415;DHT22;38340;52.964;6.086;2022-07-11T00:16:09;15.70;99.90
52415;DHT22;38340;52.964;6.086;2022-07-11T00:18:35;15.70;99.90
52415;DHT22;38340;52.964;6.086;2022-07-11T00:21:00;15.70;99.90
52415;DHT22;38340;52.964;6.086;2022-07-11T00:23:26;15.60;99.90
52415;DHT22;38340;52.964;6.086;2022-07-11T00:25:52;15.60;99.90
52415;DHT22;38340;52.964;6.086;2022-07-11T00:28:17;15.50;99.90
52415;DHT22;38340;52.964;6.086;2022-07-11T00:30:44;15.70;99.90
52415;DHT22;38340;52.964;6.086;2022-07-11T00:33:10;15.50;99.90
52415;DHT22;38340;52.964;6.086;2022-07-11T00:35:36;15.60;99.90
52415;DHT22;38340;52.964;6.086;2022-07-11T00:38:02;15.60;99.90
52415;DHT22;38340;52.964;6.086;2022-07-11T00:40:28;15.60;99.90
52415;DHT22;38340;52.964;6.086;2022-07-11T00:42:54;15.50;99.90
52415;DHT22;38340;52.964;6.086;2022-07-11T00:45:20;15.50;99.90
52415;DHT22;38340;52.964;6.086;2022-07-11T00:47:46;15.60;99.90
52415;DHT22;38340;52.964;6.086;2022-07-11T00:50:13;15.50;99.90
52415;DHT22;38340;52.964;6.086;2022-07-11T00:52:40;15.60;99.90
52415;DHT22;38340;52.964;6.086;2022-07-11T00:55:07;15.60;99.90
52415;DHT22;38340;52.964;6.086;2022-07-11T00:57:35;15.50;99.90
52415;DHT22;38340;52.964;6.086;2022-07-11T01:00:03;15.40;99.90
52415;DHT22;38340;52.964;6.086;2022-07-11T01:02:28;15.40;99.90
52415;DHT22;38340;52.964;6.086;2022-07-11T01:04:54;15.40;99.90
52415;DHT22;38340;52.964;6.086;2022-07-11T01:07:20;15.40;99.90
52415;DHT22;38340;52.964;6.086;2022-07-11T01:09:46;15.50;99.90
52415;DHT22;38340;52.964;6.086;2022-07-11T01:12:12;15.40;99.90
52415;DHT22;38340;52.964;6.086;2022-07-11T01:14:38;15.40;99.90
52415;DHT22;38340;52.964;6.086;2022-07-11T01:17:04;15.40;99.90
52415;DHT22;38340;52.964;6.086;2022-07-11T01:19:30;15.40;99.90
52415;DHT22;38340;52.964;6.086;2022-07-11T01:21:58;15.50;99.90
52415;DHT22;38340;52.964;6.086;2022-07-11T01:24:26;15.40;99.90
52415;DHT22;38340;52.964;6.086;2022-07-11T01:26:52;15.40;99.90
52415;DHT22;38340;52.964;6.086;2022-07-11T01:29:17;15.40;99.90
52415;DHT22;38340;52.964;6.086;2022-07-11T01:31:44;15.30;99.90
52415;DHT22;38340;52.964;6.086;2022-07-11T01:34:10;15.40;99.90
52415;DHT22;38340;52.964;6.086;2022-07-11T01:36:36;15.40;99.90
52415;DHT22;38340;52.964;6.086;2022-07-11T01:39:03;15.40;99.90
52415;DHT22;38340;52.964;6.086;2022-07-11T01:41:28;15.30;99.90
52415;DHT22;38340;52.964;6.086;2022-07-11T01:43:54;15.30;99.90
52415;DHT22;38340;52.964;6.086;2022-07-11T01:46:20;15.30;99.90
52415;DHT22;38340;52.964;6.086;2022-07-11T01:48:47;15.30;99.90
52415;DHT22;38340;52.964;6.086;2022-07-11T01:51:13;15.30;99.90
52415;DHT22;38340;52.964;6.086;2022-07-11T01:53:39;15.30;99.90
52415;DHT22;38340;52.964;6.086;2022-07-11T01:56:05;15.20;99.90
52415;DHT22;38340;52.964;6.086;2022-07-11T01:58:31;15.30;99.90
52415;DHT22;38340;52.964;6.086;2022-07-11T02:00:58;15.30;99.90
52415;DHT22;38340;52.964;6.086;2022-07-11T02:03:23;15.30;99.90
52415;DHT22;38340;52.964;6.086;2022-07-11T02:05:49;15.20;99.90
52415;DHT22;38340;52.964;6.086;2022-07-11T02:08:15;15.30;99.90
52415;DHT22;38340;52.964;6.086;2022-07-11T02:10:49;15.30;99.90
52415;DHT22;38340;52.964;6.086;2022-07-11T02:13:17;15.20;99.90
52415;DHT22;38340;52.964;6.086;2022-07-11T02:15:44;15.30;99.90
52415;DHT22;38340;52.964;6.086;2022-07-11T02:18:10;15.30;99.90
52415;DHT22;38340;52.964;6.086;2022-07-11T02:20:38;15.20;99.90
52415;DHT22;38340;52.964;6.086;2022-07-11T02:23:04;15.30;99.90
52415;DHT22;38340;52.964;6.086;2022-07-11T02:25:31;15.20;99.90
52415;DHT22;38340;52.964;6.086;2022-07-11T02:27:57;15.20;99.90
52415;DHT22;38340;52.964;6.086;2022-07-11T02:30:23;15.20;99.90
52415;DHT22;38340;52.964;6.086;2022-07-11T02:32:52;15.30;99.90
52415;DHT22;38340;52.964;6.086;2022-07-11T02:35:18;15.20;99.90
52415;DHT22;38340;52.964;6.086;2022-07-11T02:37:44;15.30;99.90
52415;DHT22;38340;52.964;6.086;2022-07-11T02:40:10;15.20;99.90
52415;DHT22;38340;52.964;6.086;2022-07-11T02:42:36;15.30;99.90
52415;DHT22;38340;52.964;6.086;2022-07-11T02:45:04;15.20;99.90
52415;DHT22;38340;52.964;6.086;2022-07-11T02:47:30;15.20;99.90
52415;DHT22;38340;52.964;6.086;2022-07-11T02:49:55;15.30;99.90
52415;DHT22;38340;52.964;6.086;2022-07-11T02:52:21;15.30;99.90
52415;DHT22;38340;52.964;6.086;2022-07-11T02:54:47;15.30;99.90
52415;DHT22;38340;52.964;6.086;2022-07-11T02:57:13;15.30;99.90
52415;DHT22;38340;52.964;6.086;2022-07-11T02:59:39;15.20;99.90
52415;DHT22;38340;52.964;6.086;2022-07-11T03:02:04;15.20;99.90
52415;DHT22;38340;52.964;6.086;2022-07-11T03:04:33;15.20;99.90
52415;DHT22;38340;52.964;6.086;2022-07-11T03:06:59;15.30;99.90
52415;DHT22;38340;52.964;6.086;2022-07-11T03:09:25;15.20;99.90
52415;DHT22;38340;52.964;6.086;2022-07-11T03:11:51;15.20;99.90
52415;DHT22;38340;52.964;6.086;2022-07-11T03:14:18;15.20;99.90
52415;DHT22;38340;52.964;6.086;2022-07-11T03:16:44;15.20;99.90
52415;DHT22;38340;52.964;6.086;2022-07-11T03:19:10;15.30;99.90
52415;DHT22;38340;52.964;6.086;2022-07-11T03:21:35;15.20;99.90
52415;DHT22;38340;52.964;6.086;2022-07-11T03:24:01;15.20;99.90
52415;DHT22;38340;52.964;6.086;2022-07-11T03:26:27;15.20;99.90
52415;DHT22;38340;52.964;6.086;2022-07-11T03:28:52;15.30;99.90
52415;DHT22;38340;52.964;6.086;2022-07-11T03:31:18;15.20;99.90
52415;DHT22;38340;52.964;6.086;2022-07-11T03:33:44;15.20;99.90
52415;DHT22;38340;52.964;6.086;2022-07-11T03:36:10;15.20;99.90
52415;DHT22;38340;52.964;6.086;2022-07-11T03:38:36;15.30;99.90
52415;DHT22;38340;52.964;6.086;2022-07-11T03:41:03;15.20;99.90
52415;DHT22;38340;52.964;6.086;2022-07-11T03:43:29;15.20;99.90
52415;DHT22;38340;52.964;6.086;2022-07-11T03:45:55;15.20;99.90
52415;DHT22;38340;52.964;6.086;2022-07-11T03:48:21;15.30;99.90
52415;DHT22;38340;52.964;6.086;2022-07-11T03:50:47;15.20;99.90
52415;DHT22;38340;52.964;6.086;2022-07-11T03:53:13;15.20;99.90
52415;DHT22;38340;52.964;6.086;2022-07-11T03:55:39;15.20;99.90
52415;DHT22;38340;52.964;6.086;2022-07-11T03:58:05;15.20;99.90
52415;DHT22;38340;52.964;6.086;2022-07-11T04:00:31;15.10;99.90
52415;DHT22;38340;52.964;6.086;2022-07-11T04:02:57;15.20;99.90
52415;DHT22;38340;52.964;6.086;2022-07-11T04:05:23;15.10;99.90
52415;DHT22;38340;52.964;6.086;2022-07-11T04:07:49;15.10;99.90
52415;DHT22;38340;52.964;6.086;2022-07-11T04:10:15;15.20;99.90
52415;DHT22;38340;52.964;6.086;2022-07-11T04:12:43;15.20;99.90
52415;DHT22;38340;52.964;6.086;2022-07-11T04:15:10;15.20;99.90
52415;DHT22;38340;52.964;6.086;2022-07-11T04:17:36;15.00;99.90
52415;DHT22;38340;52.964;6.086;2022-07-11T04:20:03;15.10;99.90
52415;DHT22;38340;52.964;6.086;2022-07-11T04:22:29;15.10;99.90
52415;DHT22;38340;52.964;6.086;2022-07-11T04:24:55;15.00;99.90
52415;DHT22;38340;52.964;6.086;2022-07-11T04:27:20;15.00;99.90
52415;DHT22;38340;52.964;6.086;2022-07-11T04:29:46;15.00;99.90
52415;DHT22;38340;52.964;6.086;2022-07-11T04:32:12;15.00;99.90
52415;DHT22;38340;52.964;6.086;2022-07-11T04:34:38;15.00;99.90
52415;DHT22;38340;52.964;6.086;2022-07-11T04:37:03;15.00;99.90
52415;DHT22;38340;52.964;6.086;2022-07-11T04:39:31;15.00;99.90
52415;DHT22;38340;52.964;6.086;2022-07-11T04:41:58;15.10;99.90
52415;DHT22;38340;52.964;6.086;2022-07-11T04:44:24;15.10;99.90
52415;DHT22;38340;52.964;6.086;2022-07-11T04:46:50;15.20;99.90
52415;DHT22;38340;52.964;6.086;2022-07-11T04:49:15;15.20;99.90
52415;DHT22;38340;52.964;6.086;2022-07-11T04:51:41;15.20;99.90
52415;DHT22;38340;52.964;6.086;2022-07-11T04:54:07;15.20;99.90
52415;DHT22;38340;52.964;6.086;2022-07-11T04:56:34;15.30;99.90
52415;DHT22;38340;52.964;6.086;2022-07-11T04:59:00;15.20;99.90
52415;DHT22;38340;52.964;6.086;2022-07-11T05:01:26;15.30;99.90
52415;DHT22;38340;52.964;6.086;2022-07-11T05:03:54;15.20;99.90
52415;DHT22;38340;52.964;6.086;2022-07-11T05:06:20;15.20;99.90
52415;DHT22;38340;52.964;6.086;2022-07-11T05:08:46;15.30;99.90
52415;DHT22;38340;52.964;6.086;2022-07-11T05:11:11;15.30;99.90
52415;DHT22;38340;52.964;6.086;2022-07-11T05:13:37;15.40;99.90
52415;DHT22;38340;52.964;6.086;2022-07-11T05:16:03;15.40;99.90
52415;DHT22;38340;52.964;6.086;2022-07-11T05:18:29;15.40;99.90
52415;DHT22;38340;52.964;6.086;2022-07-11T05:20:54;15.40;99.90
52415;DHT22;38340;52.964;6.086;2022-07-11T05:23:21;15.40;99.90
52415;DHT22;38340;52.964;6.086;2022-07-11T05:25:46;15.30;99.90
52415;DHT22;38340;52.964;6.086;2022-07-11T05:28:12;15.40;99.90
52415;DHT22;38340;52.964;6.086;2022-07-11T05:30:38;15.40;99.90
52415;DHT22;38340;52.964;6.086;2022-07-11T05:33:03;15.40;99.90
52415;DHT22;38340;52.964;6.086;2022-07-11T05:35:29;15.40;99.90
52415;DHT22;38340;52.964;6.086;2022-07-11T05:37:55;15.40;99.90
52415;DHT22;38340;52.964;6.086;2022-07-11T05:40:21;15.40;99.90
52415;DHT22;38340;52.964;6.086;2022-07-11T05:42:47;15.50;99.90
52415;DHT22;38340;52.964;6.086;2022-07-11T05:45:12;15.50;99.90
52415;DHT22;38340;52.964;6.086;2022-07-11T05:47:38;15.60;99.90
52415;DHT22;38340;52.964;6.086;2022-07-11T05:50:04;15.50;99.90
52415;DHT22;38340;52.964;6.086;2022-07-11T05:52:30;15.70;99.90
52415;DHT22;38340;52.964;6.086;2022-07-11T05:54:57;15.60;99.90
52415;DHT22;38340;52.964;6.086;2022-07-11T05:57:23;15.70;99.90
52415;DHT22;38340;52.964;6.086;2022-07-11T05:59:49;15.70;99.90
52415;DHT22;38340;52.964;6.086;2022-07-11T06:02:14;15.80;99.90
52415;DHT22;38340;52.964;6.086;2022-07-11T06:04:40;15.70;99.90
52415;DHT22;38340;52.964;6.086;2022-07-11T06:07:08;15.80;99.90
52415;DHT22;38340;52.964;6.086;2022-07-11T06:09:34;15.70;99.90
52415;DHT22;38340;52.964;6.086;2022-07-11T06:12:00;15.90;99.90
52415;DHT22;38340;52.964;6.086;2022-07-11T06:14:26;15.90;99.90
52415;DHT22;38340;52.964;6.086;2022-07-11T06:16:52;16.00;99.90
52415;DHT22;38340;52.964;6.086;2022-07-11T06:19:17;16.00;99.90
52415;DHT22;38340;52.964;6.086;2022-07-11T06:21:44;16.00;99.90
52415;DHT22;38340;52.964;6.086;2022-07-11T06:24:09;16.10;99.90
52415;DHT22;38340;52.964;6.086;2022-07-11T06:26:35;16.20;99.90
52415;DHT22;38340;52.964;6.086;2022-07-11T06:29:01;16.40;99.90
52415;DHT22;38340;52.964;6.086;2022-07-11T06:31:27;16.40;99.90
52415;DHT22;38340;52.964;6.086;2022-07-11T06:33:53;16.50;99.90
52415;DHT22;38340;52.964;6.086;2022-07-11T06:36:23;16.50;99.90
52415;DHT22;38340;52.964;6.086;2022-07-11T06:38:53;16.50;99.90
52415;DHT22;38340;52.964;6.086;2022-07-11T06:41:19;16.30;99.90
52415;DHT22;38340;52.964;6.086;2022-07-11T06:43:44;16.40;99.90
52415;DHT22;38340;52.964;6.086;2022-07-11T06:46:14;16.20;99.90
52415;DHT22;38340;52.964;6.086;2022-07-11T06:48:41;16.20;99.90
52415;DHT22;38340;52.964;6.086;2022-07-11T06:51:07;16.30;99.90
52415;DHT22;38340;52.964;6.086;2022-07-11T06:53:32;16.30;99.90
52415;DHT22;38340;52.964;6.086;2022-07-11T06:55:58;16.20;99.90
52415;DHT22;38340;52.964;6.086;2022-07-11T06:58:24;16.40;99.90
52415;DHT22;38340;52.964;6.086;2022-07-11T07:01:04;16.40;99.90
52415;DHT22;38340;52.964;6.086;2022-07-11T07:03:30;16.50;99.90
52415;DHT22;38340;52.964;6.086;2022-07-11T07:05:57;16.50;99.90
52415;DHT22;38340;52.964;6.086;2022-07-11T07:08:24;16.70;99.90
52415;DHT22;38340;52.964;6.086;2022-07-11T07:10:51;16.60;99.90
52415;DHT22;38340;52.964;6.086;2022-07-11T07:13:17;16.70;99.90
52415;DHT22;38340;52.964;6.086;2022-07-11T07:15:43;16.50;99.90
52415;DHT22;38340;52.964;6.086;2022-07-11T07:18:09;16.30;99.90
52415;DHT22;38340;52.964;6.086;2022-07-11T07:20:34;16.20;99.90
52415;DHT22;38340;52.964;6.086;2022-07-11T07:23:00;16.20;99.90
52415;DHT22;38340;52.964;6.086;2022-07-11T07:25:26;16.30;99.90
52415;DHT22;38340;52.964;6.086;2022-07-11T07:27:52;16.40;99.90
52415;DHT22;38340;52.964;6.086;2022-07-11T07:30:18;16.60;99.90
52415;DHT22;38340;52.964;6.086;2022-07-11T07:32:44;16.70;99.90
52415;DHT22;38340;52.964;6.086;2022-07-11T07:35:09;16.90;99.90
52415;DHT22;38340;52.964;6.086;2022-07-11T07:37:35;17.10;99.90
52415;DHT22;38340;52.964;6.086;2022-07-11T07:40:01;16.90;99.90
52415;DHT22;38340;52.964;6.086;2022-07-11T07:42:26;17.00;99.90
52415;DHT22;38340;52.964;6.086;2022-07-11T07:44:52;17.00;99.90
52415;DHT22;38340;52.964;6.086;2022-07-11T07:47:18;16.90;99.90
52415;DHT22;38340;52.964;6.086;2022-07-11T07:49:43;17.10;99.90
52415;DHT22;38340;52.964;6.086;2022-07-11T07:52:09;17.30;99.90
52415;DHT22;38340;52.964;6.086;2022-07-11T07:54:35;17.20;99.90
52415;DHT22;38340;52.964;6.086;2022-07-11T07:57:00;16.90;99.90
52415;DHT22;38340;52.964;6.086;2022-07-11T07:59:26;16.90;99.90
52415;DHT22;38340;52.964;6.086;2022-07-11T08:01:52;16.80;99.90
52415;DHT22;38340;52.964;6.086;2022-07-11T08:04:18;17.00;99.90
52415;DHT22;38340;52.964;6.086;2022-07-11T08:06:43;17.10;99.90
52415;DHT22;38340;52.964;6.086;2022-07-11T08:09:09;17.40;99.90
52415;DHT22;38340;52.964;6.086;2022-07-11T08:11:35;17.60;99.90
52415;DHT22;38340;52.964;6.086;2022-07-11T08:14:02;17.90;99.90
52415;DHT22;38340;52.964;6.086;2022-07-11T08:16:30;18.10;99.90
52415;DHT22;38340;52.964;6.086;2022-07-11T08:19:00;18.20;99.90
52415;DHT22;38340;52.964;6.086;2022-07-11T08:21:27;18.20;99.90
52415;DHT22;38340;52.964;6.086;2022-07-11T08:23:54;17.80;99.90
52415;DHT22;38340;52.964;6.086;2022-07-11T08:26:20;17.60;99.90
52415;DHT22;38340;52.964;6.086;2022-07-11T08:28:46;17.40;99.90
52415;DHT22;38340;52.964;6.086;2022-07-11T08:31:11;17.40;99.90
52415;DHT22;38340;52.964;6.086;2022-07-11T08:33:37;17.50;99.90
52415;DHT22;38340;52.964;6.086;2022-07-11T08:36:03;17.60;99.90
52415;DHT22;38340;52.964;6.086;2022-07-11T08:38:29;17.70;99.90
52415;DHT22;38340;52.964;6.086;2022-07-11T08:40:54;18.00;99.90
52415;DHT22;38340;52.964;6.086;2022-07-11T08:43:27;18.00;99.90
52415;DHT22;38340;52.964;6.086;2022-07-11T08:45:54;18.10;99.90
52415;DHT22;38340;52.964;6.086;2022-07-11T08:48:22;17.90;99.90
52415;DHT22;38340;52.964;6.086;2022-07-11T08:50:49;17.80;99.90
52415;DHT22;38340;52.964;6.086;2022-07-11T08:53:15;17.70;99.90
52415;DHT22;38340;52.964;6.086;2022-07-11T08:55:42;17.80;99.90
52415;DHT22;38340;52.964;6.086;2022-07-11T08:58:08;17.80;99.90
52415;DHT22;38340;52.964;6.086;2022-07-11T09:00:35;18.00;99.90
52415;DHT22;38340;52.964;6.086;2022-07-11T09:03:03;18.20;99.90
52415;DHT22;38340;52.964;6.086;2022-07-11T09:05:30;18.50;99.90
52415;DHT22;38340;52.964;6.086;2022-07-11T09:07:56;18.70;99.90
52415;DHT22;38340;52.964;6.086;2022-07-11T09:10:22;18.80;99.90
52415;DHT22;38340;52.964;6.086;2022-07-11T09:13:20;18.90;99.90
52415;DHT22;38340;52.964;6.086;2022-07-11T09:15:46;19.00;99.90
52415;DHT22;38340;52.964;6.086;2022-07-11T09:18:34;19.10;99.90
52415;DHT22;38340;52.964;6.086;2022-07-11T09:21:10;18.80;99.90
52415;DHT22;38340;52.964;6.086;2022-07-11T09:23:57;18.60;99.90
52415;DHT22;38340;52.964;6.086;2022-07-11T09:26:44;18.30;99.90
52415;DHT22;38340;52.964;6.086;2022-07-11T09:29:16;18.30;99.90
52415;DHT22;38340;52.964;6.086;2022-07-11T09:31:43;18.40;99.90
52415;DHT22;38340;52.964;6.086;2022-07-11T09:34:11;18.30;99.90
52415;DHT22;38340;52.964;6.086;2022-07-11T09:39:21;18.60;99.90
52415;DHT22;38340;52.964;6.086;2022-07-11T09:41:49;18.80;99.90
52415;DHT22;38340;52.964;6.086;2022-07-11T09:44:17;18.80;99.90
52415;DHT22;38340;52.964;6.086;2022-07-11T09:46:45;18.90;99.90
52415;DHT22;38340;52.964;6.086;2022-07-11T09:49:13;18.70;99.90
52415;DHT22;38340;52.964;6.086;2022-07-11T09:51:39;18.70;99.90
52415;DHT22;38340;52.964;6.086;2022-07-11T09:54:06;18.50;99.90
52415;DHT22;38340;52.964;6.086;2022-07-11T09:56:40;18.30;99.90
52415;DHT22;38340;52.964;6.086;2022-07-11T09:59:10;18.40;99.90
52415;DHT22;38340;52.964;6.086;2022-07-11T10:01:36;18.40;99.90
52415;DHT22;38340;52.964;6.086;2022-07-11T10:04:05;18.60;99.90
52415;DHT22;38340;52.964;6.086;2022-07-11T10:06:30;18.80;99.90
52415;DHT22;38340;52.964;6.086;2022-07-11T10:08:56;18.90;99.90
52415;DHT22;38340;52.964;6.086;2022-07-11T10:11:22;18.90;99.90
52415;DHT22;38340;52.964;6.086;2022-07-11T10:13:49;18.90;99.90
52415;DHT22;38340;52.964;6.086;2022-07-11T10:24:41;19.40;99.90
52415;DHT22;38340;52.964;6.086;2022-07-11T10:27:13;19.70;99.90
52415;DHT22;38340;52.964;6.086;2022-07-11T10:29:51;20.00;99.90
52415;DHT22;38340;52.964;6.086;2022-07-11T10:32:17;20.20;99.90
52415;DHT22;38340;52.964;6.086;2022-07-11T10:34:43;20.30;99.90
52415;DHT22;38340;52.964;6.086;2022-07-11T10:37:10;20.20;99.90
52415;DHT22;38340;52.964;6.086;2022-07-11T10:39:37;20.30;99.90
52415;DHT22;38340;52.964;6.086;2022-07-11T10:42:05;20.40;99.90
52415;DHT22;38340;52.964;6.086;2022-07-11T10:44:51;20.20;99.90
52415;DHT22;38340;52.964;6.086;2022-07-11T10:47:40;19.90;99.90
52415;DHT22;38340;52.964;6.086;2022-07-11T10:50:31;19.50;99.90
52415;DHT22;38340;52.964;6.086;2022-07-11T10:53:07;19.60;99.90
52415;DHT22;38340;52.964;6.086;2022-07-11T10:56:05;19.80;99.90
52415;DHT22;38340;52.964;6.086;2022-07-11T10:58:33;20.00;99.90
52415;DHT22;38340;52.964;6.086;2022-07-11T11:01:08;20.10;99.90
52415;DHT22;38340;52.964;6.086;2022-07-11T11:03:41;20.30;99.90
52415;DHT22;38340;52.964;6.086;2022-07-11T11:06:07;20.50;99.90
52415;DHT22;38340;52.964;6.086;2022-07-11T11:11:04;20.30;99.90
52415;DHT22;38340;52.964;6.086;2022-07-11T11:13:32;20.20;99.90
52415;DHT22;38340;52.964;6.086;2022-07-11T11:16:02;20.20;99.90
52415;DHT22;38340;52.964;6.086;2022-07-11T11:18:31;20.10;99.90
52415;DHT22;38340;52.964;6.086;2022-07-11T11:26:20;20.00;99.90
52415;DHT22;38340;52.964;6.086;2022-07-11T11:29:02;20.10;99.90
52415;DHT22;38340;52.964;6.086;2022-07-11T11:31:30;20.00;99.90
52415;DHT22;38340;52.964;6.086;2022-07-11T11:34:01;19.90;99.90
52415;DHT22;38340;52.964;6.086;2022-07-11T11:36:27;19.80;99.90
52415;DHT22;38340;52.964;6.086;2022-07-11T11:38:54;19.90;99.90
52415;DHT22;38340;52.964;6.086;2022-07-11T11:41:25;20.00;99.90
52415;DHT22;38340;52.964;6.086;2022-07-11T11:43:52;20.10;99.90
52415;DHT22;38340;52.964;6.086;2022-07-11T11:46:18;20.00;99.90
52415;DHT22;38340;52.964;6.086;2022-07-11T11:48:44;20.10;99.90
52415;DHT22;38340;52.964;6.086;2022-07-11T11:51:17;20.10;99.90
52415;DHT22;38340;52.964;6.086;2022-07-11T11:53:45;20.30;99.90
52415;DHT22;38340;52.964;6.086;2022-07-11T11:56:16;20.40;99.90
52415;DHT22;38340;52.964;6.086;2022-07-11T11:58:43;20.60;99.90
52415;DHT22;38340;52.964;6.086;2022-07-11T12:01:13;20.70;99.90
52415;DHT22;38340;52.964;6.086;2022-07-11T12:03:53;20.70;99.90
52415;DHT22;38340;52.964;6.086;2022-07-11T12:06:25;20.80;99.90
52415;DHT22;38340;52.964;6.086;2022-07-11T12:09:13;20.90;99.90
52415;DHT22;38340;52.964;6.086;2022-07-11T12:11:42;20.80;99.90
52415;DHT22;38340;52.964;6.086;2022-07-11T12:14:09;20.90;99.90
52415;DHT22;38340;52.964;6.086;2022-07-11T12:16:46;20.70;99.90
52415;DHT22;38340;52.964;6.086;2022-07-11T12:21:41;20.80;99.90
52415;DHT22;38340;52.964;6.086;2022-07-11T12:24:21;20.70;99.90
52415;DHT22;38340;52.964;6.086;2022-07-11T12:26:47;20.70;99.90
52415;DHT22;38340;52.964;6.086;2022-07-11T12:34:44;20.50;99.90
52415;DHT22;38340;52.964;6.086;2022-07-11T12:37:17;20.60;99.90
52415;DHT22;38340;52.964;6.086;2022-07-11T12:39:51;20.60;99.90
52415;DHT22;38340;52.964;6.086;2022-07-11T12:45:13;20.50;99.90
52415;DHT22;38340;52.964;6.086;2022-07-11T12:47:41;20.40;99.90
52415;DHT22;38340;52.964;6.086;2022-07-11T12:52:42;20.50;99.90
52415;DHT22;38340;52.964;6.086;2022-07-11T12:55:11;20.50;99.90
52415;DHT22;38340;52.964;6.086;2022-07-11T13:00:29;20.70;99.90
52415;DHT22;38340;52.964;6.086;2022-07-11T13:02:57;20.80;99.90
52415;DHT22;38340;52.964;6.086;2022-07-11T13:05:24;21.00;99.90
52415;DHT22;38340;52.964;6.086;2022-07-11T13:07:49;20.90;99.90
52415;DHT22;38340;52.964;6.086;2022-07-11T13:10:34;21.10;99.90
52415;DHT22;38340;52.964;6.086;2022-07-11T13:13:19;21.30;99.90
52415;DHT22;38340;52.964;6.086;2022-07-11T13:18:58;21.10;99.90
52415;DHT22;38340;52.964;6.086;2022-07-11T13:21:24;21.00;99.90
52415;DHT22;38340;52.964;6.086;2022-07-11T13:23:50;21.10;99.90
52415;DHT22;38340;52.964;6.086;2022-07-11T13:26:16;20.90;99.90
52415;DHT22;38340;52.964;6.086;2022-07-11T13:28:42;20.90;99.90
52415;DHT22;38340;52.964;6.086;2022-07-11T13:31:08;21.00;99.90
52415;DHT22;38340;52.964;6.086;2022-07-11T13:33:34;21.10;99.90
52415;DHT22;38340;52.964;6.086;2022-07-11T13:36:00;21.00;99.90
52415;DHT22;38340;52.964;6.086;2022-07-11T13:38:26;21.00;99.90
52415;DHT22;38340;52.964;6.086;2022-07-11T13:40:52;21.10;99.90
52415;DHT22;38340;52.964;6.086;2022-07-11T13:43:17;21.40;99.90
52415;DHT22;38340;52.964;6.086;2022-07-11T13:45:44;21.50;99.90
52415;DHT22;38340;52.964;6.086;2022-07-11T13:48:10;21.40;99.90
52415;DHT22;38340;52.964;6.086;2022-07-11T13:50:36;21.30;99.90
52415;DHT22;38340;52.964;6.086;2022-07-11T13:53:02;21.00;99.90
52415;DHT22;38340;52.964;6.086;2022-07-11T13:55:28;20.80;99.90
52415;DHT22;38340;52.964;6.086;2022-07-11T13:57:59;20.50;99.90
52415;DHT22;38340;52.964;6.086;2022-07-11T14:00:26;20.50;99.90
52415;DHT22;38340;52.964;6.086;2022-07-11T14:02:54;20.40;99.90
52415;DHT22;38340;52.964;6.086;2022-07-11T14:05:19;20.40;99.90
52415;DHT22;38340;52.964;6.086;2022-07-11T14:07:46;20.30;99.90
52415;DHT22;38340;52.964;6.086;2022-07-11T14:10:12;20.40;99.90
52415;DHT22;38340;52.964;6.086;2022-07-11T14:12:39;20.50;99.90
52415;DHT22;38340;52.964;6.086;2022-07-11T14:15:05;20.60;99.90
52415;DHT22;38340;52.964;6.086;2022-07-11T14:17:31;20.80;99.90
52415;DHT22;38340;52.964;6.086;2022-07-11T14:19:57;20.90;99.90
52415;DHT22;38340;52.964;6.086;2022-07-11T14:22:23;21.00;99.90
52415;DHT22;38340;52.964;6.086;2022-07-11T14:24:48;20.90;99.90
52415;DHT22;38340;52.964;6.086;2022-07-11T14:27:15;21.00;99.90
52415;DHT22;38340;52.964;6.086;2022-07-11T14:29:41;21.10;99.90
52415;DHT22;38340;52.964;6.086;2022-07-11T14:32:07;21.00;99.90
52415;DHT22;38340;52.964;6.086;2022-07-11T14:34:33;20.90;99.90
52415;DHT22;38340;52.964;6.086;2022-07-11T14:36:59;20.90;99.90
52415;DHT22;38340;52.964;6.086;2022-07-11T14:39:24;20.90;99.90
52415;DHT22;38340;52.964;6.086;2022-07-11T14:41:50;21.00;99.90
52415;DHT22;38340;52.964;6.086;2022-07-11T14:44:17;21.10;99.90
52415;DHT22;38340;52.964;6.086;2022-07-11T14:46:43;21.10;99.90
52415;DHT22;38340;52.964;6.086;2022-07-11T14:49:08;21.00;99.90
52415;DHT22;38340;52.964;6.086;2022-07-11T14:51:35;21.10;99.90
52415;DHT22;38340;52.964;6.086;2022-07-11T14:54:01;21.20;99.90
52415;DHT22;38340;52.964;6.086;2022-07-11T14:56:27;21.30;99.90
52415;DHT22;38340;52.964;6.086;2022-07-11T14:58:53;21.20;99.90
52415;DHT22;38340;52.964;6.086;2022-07-11T15:01:19;21.30;99.90
52415;DHT22;38340;52.964;6.086;2022-07-11T15:03:44;21.30;99.90
52415;DHT22;38340;52.964;6.086;2022-07-11T15:06:14;21.40;99.90
52415;DHT22;38340;52.964;6.086;2022-07-11T15:08:41;21.40;99.90
52415;DHT22;38340;52.964;6.086;2022-07-11T15:11:25;21.30;99.90
52415;DHT22;38340;52.964;6.086;2022-07-11T15:14:10;21.10;99.90
52415;DHT22;38340;52.964;6.086;2022-07-11T15:16:36;20.90;99.90
52415;DHT22;38340;52.964;6.086;2022-07-11T15:19:04;21.00;99.90
52415;DHT22;38340;52.964;6.086;2022-07-11T15:21:31;20.90;99.90
52415;DHT22;38340;52.964;6.086;2022-07-11T15:23:57;20.70;99.90
52415;DHT22;38340;52.964;6.086;2022-07-11T15:26:23;20.80;99.90
52415;DHT22;38340;52.964;6.086;2022-07-11T15:28:51;20.80;99.90
52415;DHT22;38340;52.964;6.086;2022-07-11T15:31:17;20.80;99.90
52415;DHT22;38340;52.964;6.086;2022-07-11T15:33:43;20.90;99.90
52415;DHT22;38340;52.964;6.086;2022-07-11T15:36:10;20.90;99.90
52415;DHT22;38340;52.964;6.086;2022-07-11T15:38:36;20.90;99.90
52415;DHT22;38340;52.964;6.086;2022-07-11T15:41:01;21.10;99.90
52415;DHT22;38340;52.964;6.086;2022-07-11T15:43:29;21.20;99.90
52415;DHT22;38340;52.964;6.086;2022-07-11T15:45:55;21.20;99.90
52415;DHT22;38340;52.964;6.086;2022-07-11T15:48:21;21.50;99.90
52415;DHT22;38340;52.964;6.086;2022-07-11T15:50:47;21.70;99.90
52415;DHT22;38340;52.964;6.086;2022-07-11T15:53:13;21.60;99.90
52415;DHT22;38340;52.964;6.086;2022-07-11T15:55:38;21.50;99.90
52415;DHT22;38340;52.964;6.086;2022-07-11T15:58:04;21.50;99.90
52415;DHT22;38340;52.964;6.086;2022-07-11T16:00:30;21.30;99.90
52415;DHT22;38340;52.964;6.086;2022-07-11T16:02:56;21.20;99.90
52415;DHT22;38340;52.964;6.086;2022-07-11T16:05:21;21.20;99.90
52415;DHT22;38340;52.964;6.086;2022-07-11T16:07:48;21.30;99.90
52415;DHT22;38340;52.964;6.086;2022-07-11T16:10:14;21.20;99.90